createdAt,value
2022-08-04T00:00:30.064Z,101642.40
2022-08-04T00:01:45.728Z,101641.69
2022-08-04T00:02:48.631Z,101639.73
2022-08-04T00:04:13.205Z,101642.23
2022-08-04T00:05:34.581Z,101637.27
2022-08-04T00:06:46.022Z,101641.22
2022-08-04T00:07:57.028Z,101638.16
2022-08-04T00:09:03.157Z,101637.89
2022-08-04T00:10:09.210Z,101636.84
2022-08-04T00:11:15.743Z,101640.18
2022-08-04T00:12:22.276Z,101640.17
2022-08-04T00:13:37.723Z,101643.26
2022-08-04T00:15:01.336Z,101640.92
2022-08-04T00:16:08.726Z,101644.30
2022-08-04T00:17:11.973Z,101643.48
2022-08-04T00:18:15.379Z,101641.19
2022-08-04T00:19:21.641Z,101641.90
2022-08-04T00:20:24.826Z,101644.77
2022-08-04T00:21:28.146Z,101643.02
2022-08-04T00:22:31.765Z,101644.28
2022-08-04T00:24:11.607Z,101646.09
2022-08-04T00:25:02.407Z,101645.48
2022-08-04T00:26:05.442Z,101641.80
2022-08-04T00:27:08.766Z,101643.19
2022-08-04T00:28:12.373Z,101643.96
2022-08-04T00:29:15.607Z,101640.09
2022-08-04T00:30:18.499Z,101641.45
2022-08-04T00:31:53.698Z,101639.81
2022-08-04T00:32:45.543Z,101637.84
2022-08-04T00:33:48.953Z,101638.44
2022-08-04T00:34:52.558Z,101641.07
2022-08-04T00:35:57.068Z,101642.55
2022-08-04T00:37:00.048Z,101637.36
2022-08-04T00:38:03.434Z,101639.89
2022-08-04T00:39:07.338Z,101637.98
2022-08-04T00:40:23.907Z,101640.48
2022-08-04T00:41:26.793Z,101638.90
2022-08-04T00:42:58.261Z,101637.31
2022-08-04T00:44:05.302Z,101637.59
2022-08-04T00:45:10.971Z,101638.02
2022-08-04T00:46:19.722Z,101640.89
2022-08-04T00:47:34.375Z,101638.66
2022-08-04T00:48:47.734Z,101637.27
2022-08-04T00:49:59.739Z,101635.09
2022-08-04T00:51:21.203Z,101632.63
2022-08-04T00:52:32.507Z,101629.13
2022-08-04T00:53:49.859Z,101629.79
2022-08-04T00:55:07.084Z,101631.25
2022-08-04T00:56:11.899Z,101630.85
2022-08-04T00:57:34.105Z,101629.64
2022-08-04T00:58:44.224Z,101625.60
2022-08-04T01:00:08.942Z,101626.42
2022-08-04T01:01:30.234Z,101627.73
2022-08-04T01:02:37.073Z,101626.91
2022-08-04T01:03:50.275Z,101627.63
2022-08-04T01:05:04.423Z,101624.89
2022-08-04T01:06:30.838Z,101627.58
2022-08-04T01:07:39.736Z,101624.73
2022-08-04T01:08:49.598Z,101626.80
2022-08-04T01:10:08.970Z,101627.80
2022-08-04T01:11:24.437Z,101627.57
2022-08-04T01:12:39.467Z,101630.96
2022-08-04T01:13:48.673Z,101634.57
2022-08-04T01:14:58.018Z,101632.39
2022-08-04T01:16:03.188Z,101634.03
2022-08-04T01:17:15.418Z,101631.13
2022-08-04T01:18:23.287Z,101631.68
2022-08-04T01:19:29.237Z,101635.92
2022-08-04T01:20:35.303Z,101635.48
2022-08-04T01:21:43.062Z,101634.72
2022-08-04T01:23:01.779Z,101638.27
2022-08-04T01:24:23.109Z,101638.37
2022-08-04T01:25:49.418Z,101643.13
2022-08-04T01:26:57.778Z,101643.95
2022-08-04T01:28:03.881Z,101642.77
2022-08-04T01:29:10.976Z,101640.15
2022-08-04T01:30:17.333Z,101642.45
2022-08-04T01:32:57.364Z,101638.88
2022-08-04T01:34:04.853Z,101641.05
2022-08-04T01:35:11.098Z,101636.63
2022-08-04T01:36:24.933Z,101641.39
2022-08-04T01:37:46.630Z,101638.16
2022-08-04T01:38:49.644Z,101635.96
2022-08-04T01:40:12.831Z,101633.27
2022-08-04T01:41:19.232Z,101636.19
2022-08-04T01:42:36.317Z,101638.10
2022-08-04T01:43:43.565Z,101634.87
2022-08-04T01:44:47.982Z,101635.27
2022-08-04T01:45:52.133Z,101631.45
2022-08-04T01:46:55.475Z,101631.40
2022-08-04T01:47:58.456Z,101633.52
2022-08-04T01:49:02.936Z,101631.77
2022-08-04T01:50:08.291Z,101633.03
2022-08-04T01:51:11.768Z,101635.77
2022-08-04T01:52:16.510Z,101630.21
2022-08-04T01:53:24.526Z,101633.94
2022-08-04T01:54:28.474Z,101635.24
2022-08-04T01:55:55.218Z,101631.65
2022-08-04T01:56:55.520Z,101628.27
2022-08-04T01:58:01.040Z,101625.88
2022-08-04T01:59:04.065Z,101626.09
2022-08-04T02:00:07.537Z,101627.90
2022-08-04T02:01:13.233Z,101625.98
2022-08-04T02:02:16.424Z,101623.48
2022-08-04T02:03:20.382Z,101626.83
2022-08-04T02:04:23.869Z,101628.44
2022-08-04T02:06:03.113Z,101627.70
2022-08-04T02:07:08.690Z,101628.52
2022-08-04T02:08:33.290Z,101633.92
2022-08-04T02:09:55.023Z,101632.73
2022-08-04T02:11:00.981Z,101634.38
2022-08-04T02:12:15.851Z,101628.86
2022-08-04T02:13:22.756Z,101633.98
2022-08-04T02:14:40.706Z,101631.23
2022-08-04T02:15:46.680Z,101630.83
2022-08-04T02:16:52.530Z,101631.50
2022-08-04T02:18:00.604Z,101631.61
2022-08-04T02:19:03.851Z,101629.65
2022-08-04T02:20:16.659Z,101629.39
2022-08-04T02:21:20.509Z,101633.71
2022-08-04T02:22:25.709Z,101633.34
2022-08-04T02:23:31.446Z,101632.20
2022-08-04T02:24:38.006Z,101630.61
2022-08-04T02:25:46.012Z,101631.51
2022-08-04T02:26:50.197Z,101631.77
2022-08-04T02:27:59.374Z,101631.73
2022-08-04T02:29:03.554Z,101629.61
2022-08-04T02:30:06.900Z,101625.77
2022-08-04T02:31:28.746Z,101627.52
2022-08-04T02:32:39.604Z,101626.39
2022-08-04T02:33:44.231Z,101625.39
2022-08-04T02:34:47.834Z,101622.08
2022-08-04T02:35:54.471Z,101619.11
2022-08-04T02:36:59.197Z,101619.00
2022-08-04T02:38:17.102Z,101619.09
2022-08-04T02:39:31.547Z,101621.21
2022-08-04T02:40:51.630Z,101618.93
2022-08-04T02:41:55.838Z,101617.95
2022-08-04T02:42:59.360Z,101623.52
2022-08-04T02:44:04.194Z,101620.55
2022-08-04T02:45:07.659Z,101624.02
2022-08-04T02:46:18.022Z,101623.01
2022-08-04T02:47:24.563Z,101626.09
2022-08-04T02:48:48.107Z,101626.73
2022-08-04T02:49:51.871Z,101626.12
2022-08-04T02:50:55.994Z,101626.02
2022-08-04T02:51:59.953Z,101625.46
2022-08-04T02:53:04.314Z,101621.80
2022-08-04T02:54:15.312Z,101622.27
2022-08-04T02:55:33.953Z,101622.88
2022-08-04T02:56:38.838Z,101620.91
2022-08-04T02:57:43.562Z,101621.77
2022-08-04T02:58:49.408Z,101619.15
2022-08-04T02:59:52.478Z,101621.77
2022-08-04T03:00:55.391Z,101621.48
2022-08-04T03:01:58.524Z,101620.41
2022-08-04T03:03:20.108Z,101620.16
2022-08-04T03:04:24.461Z,101623.06
2022-08-04T03:05:57.501Z,101617.91
2022-08-04T03:07:05.931Z,101616.67
2022-08-04T03:08:28.754Z,101616.80
2022-08-04T03:09:38.730Z,101619.96
2022-08-04T03:10:41.599Z,101621.71
2022-08-04T03:11:53.703Z,101624.78
2022-08-04T03:13:14.786Z,101619.85
2022-08-04T03:14:32.680Z,101618.10
2022-08-04T03:15:40.636Z,101625.52
2022-08-04T03:16:55.763Z,101622.73
2022-08-04T03:17:58.613Z,101623.52
2022-08-04T03:19:20.024Z,101624.26
2022-08-04T03:20:22.956Z,101624.61
2022-08-04T03:21:28.758Z,101622.54
2022-08-04T03:22:31.703Z,101626.84
2022-08-04T03:23:53.092Z,101625.58
2022-08-04T03:25:14.643Z,101628.73
2022-08-04T03:26:28.571Z,101626.36
2022-08-04T03:27:41.196Z,101626.96
2022-08-04T03:29:05.997Z,101628.65
2022-08-04T03:30:08.936Z,101629.77
2022-08-04T03:31:14.879Z,101631.73
2022-08-04T03:32:36.266Z,101631.29
2022-08-04T03:33:57.392Z,101631.12
2022-08-04T03:35:14.556Z,101627.23
2022-08-04T03:36:30.118Z,101630.21
2022-08-04T03:37:49.686Z,101630.09
2022-08-04T03:39:09.414Z,101626.98
2022-08-04T03:40:18.161Z,101625.77
2022-08-04T03:41:55.025Z,101629.18
2022-08-04T03:43:57.758Z,101626.64
2022-08-04T03:44:52.875Z,101630.19
2022-08-04T03:45:55.793Z,101628.98
2022-08-04T03:47:07.419Z,101629.52
2022-08-04T03:48:29.056Z,101628.24
2022-08-04T03:50:10.536Z,101631.74
2022-08-04T03:51:38.212Z,101629.38
2022-08-04T03:53:09.590Z,101630.61
2022-08-04T03:54:28.711Z,101631.15
2022-08-04T03:55:40.631Z,101630.49
2022-08-04T03:57:01.743Z,101632.63
2022-08-04T03:58:30.400Z,101631.60
2022-08-04T03:59:36.765Z,101638.07
2022-08-04T04:00:45.834Z,101641.95
2022-08-04T04:02:07.493Z,101642.55
2022-08-04T04:03:22.885Z,101640.05
2022-08-04T04:04:32.133Z,101645.52
2022-08-04T04:05:40.345Z,101646.09
2022-08-04T04:07:19.512Z,101641.01
2022-08-04T04:08:49.684Z,101647.18
2022-08-04T04:09:57.934Z,101646.92
2022-08-04T04:11:08.943Z,101647.09
2022-08-04T04:12:15.238Z,101649.70
2022-08-04T04:13:35.909Z,101648.33
2022-08-04T04:14:50.830Z,101647.09
2022-08-04T04:15:56.735Z,101647.87
2022-08-04T04:16:59.610Z,101646.51
2022-08-04T04:18:21.237Z,101646.55
2022-08-04T04:19:44.515Z,101643.41
2022-08-04T04:20:53.327Z,101645.10
2022-08-04T04:22:05.390Z,101644.69
2022-08-04T04:23:10.382Z,101646.93
2022-08-04T04:24:13.926Z,101646.49
2022-08-04T04:25:28.403Z,101645.52
2022-08-04T04:26:37.191Z,101641.45
2022-08-04T04:27:43.596Z,101645.25
2022-08-04T04:28:52.587Z,101643.70
2022-08-04T04:29:55.487Z,101640.65
2022-08-04T04:31:07.100Z,101640.38
2022-08-04T04:32:22.304Z,101640.56
2022-08-04T04:33:33.829Z,101643.42
2022-08-04T04:34:46.623Z,101638.90
2022-08-04T04:35:52.197Z,101641.88
2022-08-04T04:37:13.843Z,101642.19
2022-08-04T04:38:25.878Z,101639.88
2022-08-04T04:39:35.031Z,101641.62
2022-08-04T04:40:58.243Z,101642.19
2022-08-04T04:42:03.843Z,101646.70
2022-08-04T04:43:13.803Z,101647.60
2022-08-04T04:44:30.806Z,101644.33
2022-08-04T04:45:52.598Z,101639.88
2022-08-04T04:47:04.715Z,101640.91
2022-08-04T04:48:26.865Z,101641.46
2022-08-04T04:49:50.071Z,101641.21
2022-08-04T04:51:14.513Z,101640.30
2022-08-04T04:52:20.625Z,101638.12
2022-08-04T04:53:27.694Z,101640.30
2022-08-04T04:54:35.163Z,101639.92
2022-08-04T04:55:47.974Z,101642.06
2022-08-04T04:56:54.208Z,101639.06
2022-08-04T04:58:00.514Z,101644.42
2022-08-04T04:59:04.432Z,101641.37
2022-08-04T05:00:13.084Z,101639.13
2022-08-04T05:01:15.990Z,101639.73
2022-08-04T05:02:37.374Z,101642.64
2022-08-04T05:03:59.274Z,101641.27
2022-08-04T05:05:20.304Z,101640.80
2022-08-04T05:06:38.267Z,101642.39
2022-08-04T05:07:58.420Z,101642.93
2022-08-04T05:09:01.413Z,101644.36
2022-08-04T05:10:10.918Z,101647.85
2022-08-04T05:11:32.714Z,101648.17
2022-08-04T05:14:33.198Z,101651.18
2022-08-04T05:14:41.561Z,101651.86
2022-08-04T05:15:46.714Z,101648.52
2022-08-04T05:16:58.444Z,101652.07
2022-08-04T05:18:02.230Z,101648.17
2022-08-04T05:19:11.215Z,101650.73
2022-08-04T05:20:17.044Z,101650.35
2022-08-04T05:21:27.266Z,101646.72
2022-08-04T05:22:36.193Z,101645.67
2022-08-04T05:23:43.605Z,101646.20
2022-08-04T05:24:47.908Z,101645.61
2022-08-04T05:25:59.556Z,101644.16
2022-08-04T05:27:05.853Z,101645.28
2022-08-04T05:28:11.984Z,101647.80
2022-08-04T05:29:30.919Z,101651.23
2022-08-04T05:30:37.022Z,101644.15
2022-08-04T05:31:42.952Z,101644.68
2022-08-04T05:33:00.201Z,101643.52
2022-08-04T05:34:04.512Z,101641.65
2022-08-04T05:35:12.390Z,101641.21
2022-08-04T05:36:32.737Z,101638.64
2022-08-04T05:37:41.547Z,101638.95
2022-08-04T05:38:45.046Z,101637.50
2022-08-04T05:39:54.079Z,101637.79
2022-08-04T05:40:57.303Z,101641.17
2022-08-04T05:42:04.416Z,101640.64
2022-08-04T05:43:08.239Z,101643.76
2022-08-04T05:44:11.947Z,101642.46
2022-08-04T05:45:15.454Z,101641.94
2022-08-04T05:46:19.467Z,101641.30
2022-08-04T05:47:22.854Z,101642.65
2022-08-04T05:48:27.602Z,101643.56
2022-08-04T05:49:31.270Z,101645.41
2022-08-04T05:50:34.572Z,101645.16
2022-08-04T05:51:38.866Z,101645.42
2022-08-04T05:52:42.330Z,101644.44
2022-08-04T05:53:47.204Z,101643.80
2022-08-04T05:54:51.252Z,101644.98
2022-08-04T05:55:58.735Z,101644.78
2022-08-04T05:57:05.856Z,101646.27
2022-08-04T05:58:09.463Z,101647.71
2022-08-04T05:59:12.812Z,101645.48
2022-08-04T06:00:39.861Z,101647.74
2022-08-04T06:01:55.066Z,101646.33
2022-08-04T06:03:01.219Z,101645.76
2022-08-04T06:04:11.356Z,101650.77
2022-08-04T06:05:17.769Z,101650.05
2022-08-04T06:06:21.592Z,101650.80
2022-08-04T06:07:26.555Z,101649.80
2022-08-04T06:08:30.205Z,101650.21
2022-08-04T06:09:33.246Z,101647.37
2022-08-04T06:10:38.806Z,101648.79
2022-08-04T06:12:03.740Z,101652.70
2022-08-04T06:13:07.555Z,101653.08
2022-08-04T06:14:13.388Z,101651.89
2022-08-04T06:15:18.520Z,101653.17
2022-08-04T06:16:29.841Z,101656.27
2022-08-04T06:19:56.249Z,101652.90
2022-08-04T06:20:00.959Z,101653.23
2022-08-04T06:20:29.884Z,101653.52
2022-08-04T06:21:39.527Z,101651.23
2022-08-04T06:22:43.512Z,101649.79
2022-08-04T06:23:56.157Z,101645.27
2022-08-04T06:25:05.606Z,101648.39
2022-08-04T06:26:11.534Z,101651.58
2022-08-04T06:27:15.693Z,101650.65
2022-08-04T06:28:19.568Z,101655.77
2022-08-04T06:29:35.791Z,101652.45
2022-08-04T06:30:40.410Z,101655.10
2022-08-04T06:32:29.808Z,101651.13
2022-08-04T06:33:33.745Z,101655.79
2022-08-04T06:34:58.840Z,101655.41
2022-08-04T06:36:03.119Z,101650.63
2022-08-04T06:37:06.792Z,101650.55
2022-08-04T06:38:09.972Z,101652.70
2022-08-04T06:39:16.085Z,101647.55
2022-08-04T06:40:31.569Z,101651.30
2022-08-04T06:41:36.442Z,101651.52
2022-08-04T06:43:00.797Z,101652.02
2022-08-04T06:44:06.011Z,101651.71
2022-08-04T06:45:09.995Z,101652.85
2022-08-04T06:46:14.333Z,101652.96
2022-08-04T06:47:21.640Z,101655.66
2022-08-04T06:48:33.312Z,101652.89
2022-08-04T06:49:55.091Z,101653.86
2022-08-04T06:51:32.752Z,101654.34
2022-08-04T06:52:24.963Z,101654.94
2022-08-04T06:53:28.711Z,101650.30
2022-08-04T06:54:33.022Z,101655.11
2022-08-04T06:55:36.087Z,101653.48
2022-08-04T06:56:39.564Z,101655.66
2022-08-04T06:57:44.057Z,101655.95
2022-08-04T06:58:47.589Z,101654.02
2022-08-04T07:00:01.505Z,101651.60
2022-08-04T07:01:05.289Z,101656.14
2022-08-04T07:02:14.158Z,101655.40
2022-08-04T07:03:19.595Z,101653.88
2022-08-04T07:04:22.563Z,101650.68
2022-08-04T07:05:25.514Z,101654.91
2022-08-04T07:06:28.445Z,101650.77
2022-08-04T07:07:34.048Z,101653.38
2022-08-04T07:08:40.283Z,101648.94
2022-08-04T07:09:43.509Z,101648.81
2022-08-04T07:10:46.690Z,101650.60
2022-08-04T07:11:49.691Z,101644.61
2022-08-04T07:12:54.063Z,101642.35
2022-08-04T07:13:57.555Z,101645.75
2022-08-04T07:15:01.283Z,101643.82
2022-08-04T07:16:05.575Z,101643.59
2022-08-04T07:17:09.330Z,101642.27
2022-08-04T07:18:12.436Z,101640.57
2022-08-04T07:19:18.858Z,101641.85
2022-08-04T07:20:33.864Z,101640.95
2022-08-04T07:21:39.555Z,101638.77
2022-08-04T07:22:43.265Z,101638.64
2022-08-04T07:23:46.315Z,101643.52
2022-08-04T07:24:54.201Z,101640.91
2022-08-04T07:26:11.847Z,101640.91
2022-08-04T07:27:17.193Z,101636.34
2022-08-04T07:28:29.868Z,101636.80
2022-08-04T07:29:33.467Z,101636.91
2022-08-04T07:30:37.151Z,101635.13
2022-08-04T07:31:40.222Z,101634.02
2022-08-04T07:32:45.213Z,101635.09
2022-08-04T07:33:48.426Z,101634.55
2022-08-04T07:36:05.625Z,101636.86
2022-08-04T07:36:50.448Z,101635.09
2022-08-04T07:37:54.013Z,101635.54
2022-08-04T07:38:56.968Z,101632.29
2022-08-04T07:40:01.180Z,101631.08
2022-08-04T07:41:35.305Z,101637.46
2022-08-04T07:42:29.221Z,101635.90
2022-08-04T07:43:32.384Z,101631.25
2022-08-04T07:44:35.534Z,101634.13
2022-08-04T07:45:38.492Z,101634.83
2022-08-04T07:46:41.884Z,101634.71
2022-08-04T07:48:04.673Z,101639.40
2022-08-04T07:49:08.528Z,101636.00
2022-08-04T07:50:12.531Z,101633.54
2022-08-04T07:51:16.381Z,101629.86
2022-08-04T07:52:20.754Z,101633.08
2022-08-04T07:53:52.972Z,101631.87
2022-08-04T07:54:50.505Z,101632.15
2022-08-04T07:55:53.663Z,101631.77
2022-08-04T07:56:56.858Z,101636.16
2022-08-04T07:58:00.503Z,101630.10
2022-08-04T07:59:03.604Z,101633.49
2022-08-04T08:00:07.967Z,101630.42
2022-08-04T08:01:14.599Z,101639.48
2022-08-04T08:02:19.468Z,101636.89
2022-08-04T08:03:23.904Z,101633.77
2022-08-04T08:04:27.258Z,101633.30
2022-08-04T08:05:30.406Z,101632.60
2022-08-04T08:06:39.797Z,101637.27
2022-08-04T08:07:50.898Z,101635.09
2022-08-04T08:08:58.422Z,101636.73
2022-08-04T08:10:01.375Z,101637.56
2022-08-04T08:11:04.562Z,101634.42
2022-08-04T08:12:38.286Z,101635.94
2022-08-04T08:13:33.279Z,101634.24
2022-08-04T08:14:37.139Z,101636.32
2022-08-04T08:15:40.472Z,101636.23
2022-08-04T08:16:43.984Z,101639.64
2022-08-04T08:17:57.895Z,101637.81
2022-08-04T08:19:04.110Z,101637.11
2022-08-04T08:20:09.939Z,101636.23
2022-08-04T08:21:13.112Z,101634.80
2022-08-04T08:22:16.117Z,101635.29
2022-08-04T08:23:19.834Z,101631.33
2022-08-04T08:24:24.921Z,101628.35
2022-08-04T08:25:29.691Z,101630.16
2022-08-04T08:26:32.812Z,101632.98
2022-08-04T08:27:37.245Z,101631.17
2022-08-04T08:28:41.319Z,101629.48
2022-08-04T08:29:47.046Z,101630.59
2022-08-04T08:30:52.660Z,101631.10
2022-08-04T08:32:01.447Z,101632.07
2022-08-04T08:33:06.971Z,101632.64
2022-08-04T08:34:11.455Z,101633.25
2022-08-04T08:35:17.738Z,101632.23
2022-08-04T08:36:27.579Z,101629.55
2022-08-04T08:37:33.790Z,101631.80
2022-08-04T08:38:40.340Z,101631.41
2022-08-04T08:39:50.129Z,101633.77
2022-08-04T08:40:56.491Z,101633.45
2022-08-04T08:42:11.462Z,101634.41
2022-08-04T08:44:04.442Z,101632.20
2022-08-04T08:45:10.923Z,101631.42
2022-08-04T08:46:45.563Z,101633.13
2022-08-04T08:48:05.725Z,101632.61
2022-08-04T08:49:14.023Z,101630.16
2022-08-04T08:50:48.792Z,101632.44
2022-08-04T08:51:59.933Z,101630.27
2022-08-04T08:53:22.858Z,101634.14
2022-08-04T08:54:40.688Z,101629.08
2022-08-04T08:55:55.661Z,101628.21
2022-08-04T08:57:01.499Z,101627.17
2022-08-04T08:58:16.950Z,101626.36
2022-08-04T08:59:38.376Z,101629.07
2022-08-04T09:00:59.321Z,101625.86
2022-08-04T09:02:21.130Z,101632.73
2022-08-04T09:03:24.000Z,101626.95
2022-08-04T09:04:40.261Z,101624.77
2022-08-04T09:05:51.096Z,101625.64
2022-08-04T09:07:07.385Z,101634.70
2022-08-04T09:08:22.601Z,101624.17
2022-08-04T09:09:34.415Z,101627.77
2022-08-04T09:10:42.304Z,101625.12
2022-08-04T09:11:56.181Z,101624.11
2022-08-04T09:13:01.918Z,101618.98
2022-08-04T09:14:20.628Z,101620.55
2022-08-04T09:15:23.599Z,101618.88
2022-08-04T09:16:38.963Z,101619.70
2022-08-04T09:17:45.534Z,101614.04
2022-08-04T09:18:48.582Z,101612.84
2022-08-04T09:19:59.059Z,101614.66
2022-08-04T09:21:25.001Z,101613.64
2022-08-04T09:22:34.891Z,101613.52
2022-08-04T09:23:43.703Z,101610.89
2022-08-04T09:24:46.778Z,101614.39
2022-08-04T09:26:25.270Z,101610.27
2022-08-04T09:27:35.627Z,101607.10
2022-08-04T09:28:54.098Z,101609.61
2022-08-04T09:30:08.278Z,101604.61
2022-08-04T09:31:14.645Z,101601.12
2022-08-04T09:32:25.521Z,101597.52
2022-08-04T09:33:44.584Z,101604.54
2022-08-04T09:35:12.001Z,101604.27
2022-08-04T09:36:26.768Z,101598.81
2022-08-04T09:37:45.748Z,101608.77
2022-08-04T09:38:58.578Z,101609.97
2022-08-04T09:40:01.856Z,101604.00
2022-08-04T09:41:26.221Z,101604.06
2022-08-04T09:42:51.356Z,101607.84
2022-08-04T09:44:48.869Z,101607.96
2022-08-04T09:45:43.185Z,101603.56
2022-08-04T09:46:52.578Z,101599.83
2022-08-04T09:48:25.585Z,101604.83
2022-08-04T09:49:54.506Z,101599.95
2022-08-04T09:50:59.306Z,101600.41
2022-08-04T09:52:11.773Z,101596.48
2022-08-04T09:53:27.958Z,101596.34
2022-08-04T09:54:42.810Z,101592.77
2022-08-04T09:55:54.610Z,101591.02
2022-08-04T09:57:16.859Z,101593.64
2022-08-04T09:58:27.209Z,101591.92
2022-08-04T09:59:36.187Z,101598.83
2022-08-04T10:00:47.031Z,101591.81
2022-08-04T10:01:58.899Z,101596.73
2022-08-04T10:03:04.567Z,101590.98
2022-08-04T10:04:12.529Z,101592.33
2022-08-04T10:05:17.163Z,101584.99
2022-08-04T10:06:34.165Z,101587.66
2022-08-04T10:08:13.634Z,101590.32
2022-08-04T10:09:50.354Z,101586.13
2022-08-04T10:11:11.455Z,101586.20
2022-08-04T10:12:23.595Z,101585.43
2022-08-04T10:13:53.036Z,101588.33
2022-08-04T10:15:05.190Z,101587.30
2022-08-04T10:16:10.895Z,101587.07
2022-08-04T10:17:26.373Z,101594.14
2022-08-04T10:18:48.391Z,101592.47
2022-08-04T10:19:57.383Z,101588.83
2022-08-04T10:21:13.481Z,101584.20
2022-08-04T10:22:50.009Z,101586.70
2022-08-04T10:24:07.654Z,101587.63
2022-08-04T10:25:37.652Z,101582.48
2022-08-04T10:26:58.573Z,101587.20
2022-08-04T10:28:05.379Z,101586.89
2022-08-04T10:29:14.518Z,101579.78
2022-08-04T10:30:19.120Z,101579.29
2022-08-04T10:31:28.962Z,101579.89
2022-08-04T10:32:43.080Z,101584.22
2022-08-04T10:33:58.328Z,101581.88
2022-08-04T10:35:20.194Z,101579.67
2022-08-04T10:36:27.696Z,101584.23
2022-08-04T10:37:54.628Z,101585.83
2022-08-04T10:39:43.749Z,101583.73
2022-08-04T10:40:47.942Z,101579.31
2022-08-04T10:42:06.243Z,101584.74
2022-08-04T10:43:22.394Z,101578.09
2022-08-04T10:44:42.322Z,101583.02
2022-08-04T10:45:57.757Z,101584.35
2022-08-04T10:47:04.055Z,101579.96
2022-08-04T10:48:07.107Z,101578.05
2022-08-04T10:49:16.829Z,101578.56
2022-08-04T10:50:26.639Z,101573.34
2022-08-04T10:51:58.876Z,101576.48
2022-08-04T10:53:07.816Z,101573.45
2022-08-04T10:54:15.335Z,101567.82
2022-08-04T10:55:20.100Z,101572.30
2022-08-04T10:56:30.175Z,101571.13
2022-08-04T10:57:36.166Z,101574.91
2022-08-04T10:59:05.224Z,101573.29
2022-08-04T11:00:19.837Z,101570.39
2022-08-04T11:02:01.954Z,101577.33
2022-08-04T11:03:09.299Z,101574.77
2022-08-04T11:04:27.179Z,101578.04
2022-08-04T11:05:46.807Z,101575.23
2022-08-04T11:06:49.994Z,101573.62
2022-08-04T11:08:11.439Z,101577.54
2022-08-04T11:09:17.377Z,101567.61
2022-08-04T11:10:21.873Z,101567.95
2022-08-04T11:11:56.979Z,101570.41
2022-08-04T11:12:58.281Z,101568.26
2022-08-04T11:14:09.094Z,101567.88
2022-08-04T11:15:14.290Z,101569.63
2022-08-04T11:16:19.566Z,101572.48
2022-08-04T11:17:33.671Z,101570.83
2022-08-04T11:18:55.622Z,101570.50
2022-08-04T11:20:18.190Z,101573.55
2022-08-04T11:21:25.227Z,101571.19
2022-08-04T11:22:28.920Z,101562.41
2022-08-04T11:23:36.833Z,101560.74
2022-08-04T11:24:52.739Z,101562.52
2022-08-04T11:26:08.028Z,101560.51
2022-08-04T11:27:23.791Z,101566.33
2022-08-04T11:28:30.680Z,101562.08
2022-08-04T11:30:14.049Z,101562.55
2022-08-04T11:31:20.393Z,101561.21
2022-08-04T11:32:35.991Z,101559.35
2022-08-04T11:34:11.177Z,101556.15
2022-08-04T11:35:20.199Z,101555.04
2022-08-04T11:36:32.153Z,101557.31
2022-08-04T11:37:50.542Z,101555.45
2022-08-04T11:38:59.319Z,101553.03
2022-08-04T11:40:23.137Z,101551.42
2022-08-04T11:41:47.103Z,101550.65
2022-08-04T11:42:56.784Z,101547.60
2022-08-04T11:44:05.628Z,101544.72
2022-08-04T11:45:13.492Z,101549.05
2022-08-04T11:46:23.274Z,101545.70
2022-08-04T11:47:30.807Z,101549.50
2022-08-04T11:48:40.771Z,101544.85
2022-08-04T11:49:56.958Z,101546.02
2022-08-04T11:51:06.809Z,101540.58
2022-08-04T11:52:12.675Z,101545.17
2022-08-04T11:53:22.978Z,101547.59
2022-08-04T11:54:26.076Z,101548.52
2022-08-04T11:55:30.487Z,101538.29
2022-08-04T11:56:37.143Z,101547.58
2022-08-04T11:57:41.242Z,101543.97
2022-08-04T11:58:50.465Z,101542.99
2022-08-04T11:59:56.452Z,101540.55
2022-08-04T12:01:10.720Z,101538.64
2022-08-04T12:02:39.973Z,101541.70
2022-08-04T12:03:46.560Z,101551.54
2022-08-04T12:05:08.258Z,101548.42
2022-08-04T12:06:17.970Z,101551.95
2022-08-04T12:07:30.994Z,101547.77
2022-08-04T12:08:53.123Z,101545.58
2022-08-04T12:10:04.272Z,101545.02
2022-08-04T12:11:25.089Z,101547.69
2022-08-04T12:12:50.790Z,101544.00
2022-08-04T12:13:57.432Z,101550.95
2022-08-04T12:15:05.915Z,101549.00
2022-08-04T12:16:14.778Z,101549.45
2022-08-04T12:17:36.381Z,101551.80
2022-08-04T12:19:01.583Z,101549.05
2022-08-04T12:20:31.639Z,101551.34
2022-08-04T12:21:45.030Z,101546.13
2022-08-04T12:22:58.828Z,101549.91
2022-08-04T12:24:05.744Z,101550.10
2022-08-04T12:25:09.702Z,101545.48
2022-08-04T12:26:20.942Z,101539.79
2022-08-04T12:27:33.679Z,101535.78
2022-08-04T12:29:08.676Z,101537.61
2022-08-04T12:31:01.712Z,101540.52
2022-08-04T12:31:29.735Z,101536.98
2022-08-04T12:32:37.817Z,101539.08
2022-08-04T12:34:04.220Z,101541.14
2022-08-04T12:35:18.821Z,101535.02
2022-08-04T12:36:38.089Z,101536.22
2022-08-04T12:37:50.826Z,101532.82
2022-08-04T12:39:03.392Z,101534.14
2022-08-04T12:40:28.198Z,101533.09
2022-08-04T12:41:36.546Z,101537.67
2022-08-04T12:42:39.438Z,101537.80
2022-08-04T12:44:05.535Z,101538.65
2022-08-04T12:45:10.239Z,101537.92
2022-08-04T12:46:22.319Z,101530.29
2022-08-04T12:47:29.063Z,101526.81
2022-08-04T12:48:33.489Z,101528.66
2022-08-04T12:49:39.746Z,101526.88
2022-08-04T12:50:47.141Z,101522.73
2022-08-04T12:52:06.139Z,101526.65
2022-08-04T12:53:31.315Z,101525.02
2022-08-04T12:54:36.956Z,101524.09
2022-08-04T12:55:45.163Z,101524.58
2022-08-04T12:57:07.636Z,101520.91
2022-08-04T12:58:13.299Z,101521.45
2022-08-04T12:59:20.397Z,101525.33
2022-08-04T13:00:29.785Z,101520.84
2022-08-04T13:02:09.937Z,101526.52
2022-08-04T13:03:00.734Z,101524.96
2022-08-04T13:04:16.944Z,101519.55
2022-08-04T13:05:21.158Z,101520.76
2022-08-04T13:06:28.726Z,101518.71
2022-08-04T13:07:44.085Z,101514.20
2022-08-04T13:08:47.885Z,101513.20
2022-08-04T13:09:51.844Z,101513.48
2022-08-04T13:10:57.754Z,101514.89
2022-08-04T13:12:03.153Z,101514.14
2022-08-04T13:13:12.303Z,101515.52
2022-08-04T13:14:26.567Z,101513.82
2022-08-04T13:15:31.159Z,101512.09
2022-08-04T13:16:34.361Z,101512.33
2022-08-04T13:18:03.517Z,101508.33
2022-08-04T13:19:08.787Z,101507.13
2022-08-04T13:20:14.001Z,101508.24
2022-08-04T13:21:23.255Z,101503.58
2022-08-04T13:24:22.018Z,101502.60
2022-08-04T13:26:44.109Z,101497.81
2022-08-04T13:27:04.185Z,101494.65
2022-08-04T13:28:12.878Z,101493.77
2022-08-04T13:29:17.506Z,101497.22
2022-08-04T13:30:22.812Z,101495.30
2022-08-04T13:30:24.153Z,101498.81
2022-08-04T13:31:27.523Z,101491.88
2022-08-04T13:32:39.298Z,101491.19
2022-08-04T13:33:44.843Z,101492.54
2022-08-04T13:34:52.309Z,101487.13
2022-08-04T13:35:57.043Z,101490.23
2022-08-04T13:37:01.673Z,101491.71
2022-08-04T13:38:08.768Z,101496.12